Terminal Aerodrome Forecast
Issued by NWS Blacksburg, VA

Home | Current Version | Previous Version | Text Only | Print | Product List | Glossary On
Versions: 1 2 3 4 5 6 7 8 9 10 11 12 13 14 15 16 17 18 19 20 21 22 23 24 25 26
882
FTUS41 KRNK 290538
TAFLYH
TAF
KLYH 290538Z 2906/3006 00000KT P6SM BKN200
     FM291200 00000KT P6SM SCT040 OVC100
     FM291600 VRB03KT P6SM -RA OVC035
     FM292000 05004KT 4SM RA BR OVC030
     FM300000 00000KT P6SM -RA OVC035
     FM300300 VRB03KT P6SM -RA OVC020=

USA.gov is the U.S. government's official web portal to all federal, state and local government web resources and services.